createdAt,value
2023-04-24T00:01:35.368Z,81.05
2023-04-24T00:05:04.015Z,81.11
2023-04-24T00:08:31.063Z,81.24
2023-04-24T00:11:58.435Z,81.06
2023-04-24T00:15:25.539Z,81.10
2023-04-24T00:18:53.797Z,81.03
2023-04-24T00:22:21.794Z,80.96
2023-04-24T00:25:48.745Z,80.89
2023-04-24T00:29:15.615Z,80.94
2023-04-24T00:32:42.649Z,80.96
2023-04-24T00:36:10.680Z,81.05
2023-04-24T00:39:37.670Z,81.10
2023-04-24T00:43:04.703Z,81.03
2023-04-24T00:46:32.653Z,81.24
2023-04-24T00:50:00.160Z,81.20
2023-04-24T00:53:27.139Z,81.24
2023-04-24T00:56:54.187Z,81.23
2023-04-24T01:00:21.125Z,81.33
2023-04-24T01:03:48.665Z,81.43
2023-04-24T01:07:15.687Z,81.72
2023-04-24T01:10:46.060Z,81.97
2023-04-24T01:14:13.308Z,81.88
2023-04-24T01:17:40.821Z,82.29
2023-04-24T01:21:10.002Z,82.42
2023-04-24T01:24:36.810Z,82.42
2023-04-24T01:28:05.456Z,82.40
2023-04-24T01:31:32.859Z,82.52
2023-04-24T01:35:00.202Z,82.51
2023-04-24T01:38:27.522Z,82.72
2023-04-24T01:41:55.006Z,82.66
2023-04-24T01:45:22.018Z,82.71
2023-04-24T01:48:49.888Z,82.70
2023-04-24T01:52:17.458Z,82.77
2023-04-24T01:55:44.255Z,82.79
2023-04-24T01:59:15.099Z,82.76
2023-04-24T02:02:46.457Z,82.76
2023-04-24T02:06:14.912Z,82.79
2023-04-24T02:09:42.438Z,82.92
2023-04-24T02:13:09.871Z,83.02
2023-04-24T02:16:37.071Z,83.25
2023-04-24T02:20:04.623Z,83.36
2023-04-24T02:23:32.164Z,83.69
2023-04-24T02:26:59.141Z,83.44
2023-04-24T02:30:26.613Z,83.61
2023-04-24T02:33:53.509Z,83.79
2023-04-24T02:37:20.856Z,84.09
2023-04-24T02:40:47.994Z,84.51
2023-04-24T02:44:14.918Z,84.37
2023-04-24T02:47:41.778Z,84.55
2023-04-24T02:51:09.361Z,84.57
2023-04-24T02:54:36.879Z,84.75
2023-04-24T02:58:03.870Z,85.56
2023-04-24T03:01:30.627Z,85.63
2023-04-24T03:04:58.100Z,86.10
2023-04-24T03:08:25.601Z,86.44
2023-04-24T03:11:52.822Z,86.74
2023-04-24T03:15:19.966Z,86.40
2023-04-24T03:18:46.805Z,86.72
2023-04-24T03:22:14.571Z,86.94
2023-04-24T03:25:41.835Z,86.86
2023-04-24T03:29:09.310Z,86.88
2023-04-24T03:32:36.432Z,86.97
2023-04-24T03:36:04.026Z,86.86
2023-04-24T03:39:40.339Z,87.09
2023-04-24T03:43:07.865Z,87.30
2023-04-24T03:46:35.348Z,87.09
2023-04-24T03:50:03.333Z,86.81
2023-04-24T03:53:31.894Z,86.78
2023-04-24T03:56:59.602Z,86.68
2023-04-24T04:00:27.814Z,86.76
2023-04-24T04:04:03.436Z,86.73
2023-04-24T04:07:30.904Z,86.64
2023-04-24T04:10:58.039Z,86.73
2023-04-24T04:14:25.244Z,86.81
2023-04-24T04:17:52.516Z,86.77
2023-04-24T04:21:20.585Z,86.98
2023-04-24T04:24:48.263Z,86.88
2023-04-24T04:28:16.555Z,86.79
2023-04-24T04:31:43.945Z,86.98
2023-04-24T04:35:13.037Z,86.98
2023-04-24T04:38:42.959Z,87.10
2023-04-24T04:42:22.088Z,87.04
2023-04-24T04:45:50.788Z,87.13
2023-04-24T04:49:39.622Z,87.14
2023-04-24T04:53:09.919Z,87.05
2023-04-24T04:56:39.056Z,87.31
2023-04-24T05:00:11.641Z,86.99
2023-04-24T05:03:45.905Z,86.63
2023-04-24T05:07:15.090Z,86.10
2023-04-24T05:10:43.193Z,85.82
2023-04-24T05:14:10.311Z,85.93
2023-04-24T05:17:40.794Z,85.72
2023-04-24T05:21:08.304Z,85.57
2023-04-24T05:24:36.875Z,85.32
2023-04-24T05:28:39.731Z,85.17
2023-04-24T05:32:09.657Z,84.96
2023-04-24T05:35:36.981Z,84.83
2023-04-24T05:39:08.064Z,84.79
2023-04-24T05:42:35.817Z,84.97
2023-04-24T05:46:02.727Z,85.25
2023-04-24T05:49:29.907Z,84.80
2023-04-24T05:52:59.170Z,84.02
2023-04-24T05:56:29.768Z,83.58
2023-04-24T05:59:58.224Z,83.25
2023-04-24T06:03:26.171Z,83.12
2023-04-24T06:06:56.796Z,82.85
2023-04-24T06:10:24.326Z,82.51
2023-04-24T06:13:51.343Z,82.27
2023-04-24T06:17:37.486Z,81.83
2023-04-24T06:21:06.489Z,81.75
2023-04-24T06:24:33.766Z,81.57
2023-04-24T06:28:00.895Z,81.48
2023-04-24T06:31:30.277Z,81.66
2023-04-24T06:34:59.024Z,81.86
2023-04-24T06:38:26.546Z,82.46
2023-04-24T06:41:53.505Z,83.64
2023-04-24T06:45:21.042Z,84.49
2023-04-24T06:48:47.887Z,82.88
2023-04-24T06:52:14.799Z,81.73
2023-04-24T06:55:41.755Z,81.64
2023-04-24T06:59:08.896Z,80.33
2023-04-24T07:02:36.278Z,78.96
2023-04-24T07:06:04.370Z,77.17
2023-04-24T07:09:31.301Z,75.31
2023-04-24T07:12:58.497Z,73.30
2023-04-24T07:16:25.479Z,72.89
2023-04-24T07:19:52.492Z,72.51
2023-04-24T07:23:20.111Z,72.83
2023-04-24T07:26:47.523Z,73.15
2023-04-24T07:30:15.631Z,73.59
2023-04-24T07:33:42.442Z,73.22
2023-04-24T07:37:09.689Z,73.64
2023-04-24T07:40:36.537Z,73.93
2023-04-24T07:44:03.520Z,74.38
2023-04-24T07:47:33.313Z,74.09
2023-04-24T07:51:00.159Z,73.38
2023-04-24T07:54:26.973Z,72.89
2023-04-24T07:57:54.737Z,71.93
2023-04-24T08:01:25.587Z,71.74
2023-04-24T08:04:59.488Z,71.51
2023-04-24T08:08:27.484Z,71.36
2023-04-24T08:11:54.324Z,71.13
2023-04-24T08:15:21.651Z,71.19
2023-04-24T08:18:48.535Z,71.30
2023-04-24T08:22:15.425Z,71.48
2023-04-24T08:25:43.330Z,71.94
2023-04-24T08:29:11.780Z,72.08
2023-04-24T08:32:39.833Z,71.94
2023-04-24T08:36:08.091Z,71.52
2023-04-24T08:39:35.072Z,71.43
2023-04-24T08:43:02.918Z,71.09
2023-04-24T08:46:30.175Z,70.43
2023-04-24T08:49:57.751Z,70.23
2023-04-24T08:53:26.284Z,70.53
2023-04-24T08:56:55.702Z,70.48
2023-04-24T09:00:24.125Z,70.28
2023-04-24T09:03:52.958Z,69.92
2023-04-24T09:07:21.551Z,69.07
2023-04-24T09:10:51.027Z,68.51
2023-04-24T09:14:19.078Z,68.46
2023-04-24T09:17:46.272Z,68.21
2023-04-24T09:21:14.202Z,67.00
2023-04-24T09:24:42.439Z,66.34
2023-04-24T09:28:09.551Z,65.24
2023-04-24T09:31:36.352Z,64.78
2023-04-24T09:35:14.820Z,64.60
2023-04-24T09:38:42.025Z,64.32
2023-04-24T09:42:09.144Z,63.82
2023-04-24T09:45:42.554Z,63.36
2023-04-24T09:49:17.115Z,62.41
2023-04-24T09:52:58.043Z,61.97
2023-04-24T09:56:28.099Z,60.82
2023-04-24T10:00:00.272Z,60.43
2023-04-24T10:03:32.525Z,60.95
2023-04-24T10:07:02.382Z,60.47
2023-04-24T10:10:29.200Z,59.72
2023-04-24T10:13:58.349Z,59.33
2023-04-24T10:17:28.660Z,59.08
2023-04-24T10:20:58.845Z,59.60
2023-04-24T10:24:26.138Z,60.27
2023-04-24T10:27:54.330Z,59.73
2023-04-24T10:31:22.793Z,60.05
2023-04-24T10:34:50.108Z,60.01
2023-04-24T10:38:20.788Z,60.50
2023-04-24T10:41:50.787Z,60.11
2023-04-24T10:45:23.167Z,59.60
2023-04-24T10:48:56.491Z,59.27
2023-04-24T10:52:23.337Z,59.21
2023-04-24T10:55:52.399Z,58.29
2023-04-24T10:59:28.388Z,58.09
2023-04-24T11:02:57.356Z,57.70
2023-04-24T11:06:33.983Z,57.13
2023-04-24T11:10:03.132Z,55.51
2023-04-24T11:13:51.790Z,54.92
2023-04-24T11:17:33.043Z,54.89
2023-04-24T11:21:01.615Z,55.81
2023-04-24T11:24:33.875Z,56.52
2023-04-24T11:28:09.191Z,55.72
2023-04-24T11:31:43.253Z,55.50
2023-04-24T11:35:15.702Z,55.07
2023-04-24T11:38:44.900Z,54.93
2023-04-24T11:42:12.945Z,55.08
2023-04-24T11:45:40.856Z,54.34
2023-04-24T11:49:08.788Z,54.17
2023-04-24T11:52:40.016Z,53.91
2023-04-24T11:56:11.278Z,53.33
2023-04-24T11:59:41.324Z,52.93
2023-04-24T12:03:12.167Z,52.92
2023-04-24T12:06:42.117Z,53.16
2023-04-24T12:10:12.028Z,52.28
2023-04-24T12:13:41.831Z,51.77
2023-04-24T12:17:09.986Z,52.25
2023-04-24T12:20:39.555Z,52.20
2023-04-24T12:24:10.568Z,52.21
2023-04-24T12:27:38.445Z,52.09
2023-04-24T12:31:06.671Z,52.26
2023-04-24T12:34:35.790Z,53.26
2023-04-24T12:38:11.886Z,53.95
2023-04-24T12:41:39.495Z,54.54
2023-04-24T12:45:09.907Z,55.61
2023-04-24T12:48:37.067Z,56.23
2023-04-24T12:52:04.106Z,56.60
2023-04-24T12:55:31.216Z,57.11
2023-04-24T12:58:58.044Z,57.51
2023-04-24T13:02:26.037Z,57.98
2023-04-24T13:05:53.190Z,58.57
2023-04-24T13:09:20.035Z,59.01
2023-04-24T13:12:47.607Z,59.34
2023-04-24T13:16:14.524Z,59.39
2023-04-24T13:19:43.525Z,58.82
2023-04-24T13:23:11.295Z,58.62
2023-04-24T13:26:38.332Z,58.96
2023-04-24T13:30:06.140Z,59.13
2023-04-24T13:33:33.177Z,59.41
2023-04-24T13:37:00.888Z,59.68
2023-04-24T13:40:27.886Z,59.68
2023-04-24T13:43:54.697Z,59.77
2023-04-24T13:47:21.541Z,59.65
2023-04-24T13:50:49.390Z,59.32
2023-04-24T13:54:17.196Z,59.47
2023-04-24T13:57:44.262Z,59.59
2023-04-24T14:01:11.206Z,59.72
2023-04-24T14:04:38.448Z,59.12
2023-04-24T14:08:05.761Z,57.63
2023-04-24T14:11:32.743Z,56.32
2023-04-24T14:15:00.000Z,55.35
2023-04-24T14:18:27.895Z,54.97
2023-04-24T14:21:56.610Z,55.16
2023-04-24T14:25:24.247Z,55.41
2023-04-24T14:28:52.525Z,55.63
2023-04-24T14:32:20.986Z,55.83
2023-04-24T14:35:48.355Z,56.81
2023-04-24T14:39:15.358Z,57.76
2023-04-24T14:42:42.212Z,58.42
2023-04-24T14:46:09.529Z,58.76
2023-04-24T14:49:36.391Z,59.48
2023-04-24T14:53:03.392Z,60.32
2023-04-24T14:56:30.484Z,60.98
2023-04-24T14:59:57.466Z,61.45
2023-04-24T15:03:24.626Z,61.90
2023-04-24T15:06:51.911Z,62.27
2023-04-24T15:10:19.501Z,63.17
2023-04-24T15:13:47.518Z,63.20
2023-04-24T15:17:14.826Z,64.43
2023-04-24T15:20:44.787Z,65.06
2023-04-24T15:24:12.389Z,65.17
2023-04-24T15:27:46.807Z,65.26
2023-04-24T15:31:13.730Z,65.21
2023-04-24T15:34:40.885Z,65.20
2023-04-24T15:38:07.686Z,65.25
2023-04-24T15:41:34.776Z,65.39
2023-04-24T15:45:01.681Z,65.37
2023-04-24T15:48:29.172Z,65.06
2023-04-24T15:51:56.324Z,64.47
2023-04-24T15:55:23.503Z,64.07
2023-04-24T15:58:50.706Z,63.84
2023-04-24T16:02:19.413Z,63.99
2023-04-24T16:05:46.913Z,64.13
2023-04-24T16:09:15.254Z,64.12
2023-04-24T16:12:42.027Z,63.77
2023-04-24T16:16:09.536Z,63.68
2023-04-24T16:19:36.653Z,63.77
2023-04-24T16:23:03.664Z,63.75
2023-04-24T16:26:30.572Z,63.95
2023-04-24T16:29:57.571Z,63.54
2023-04-24T16:33:26.613Z,63.31
2023-04-24T16:36:53.639Z,63.33
2023-04-24T16:40:21.501Z,63.18
2023-04-24T16:43:48.421Z,63.37
2023-04-24T16:47:15.694Z,63.37
2023-04-24T16:50:42.513Z,63.50
2023-04-24T16:54:09.651Z,63.91
2023-04-24T16:57:36.697Z,64.38
2023-04-24T17:01:03.576Z,65.34
2023-04-24T17:04:32.349Z,66.34
2023-04-24T17:07:59.389Z,66.77
2023-04-24T17:11:26.435Z,67.24
2023-04-24T17:14:53.674Z,67.44
2023-04-24T17:18:20.714Z,67.57
2023-04-24T17:21:47.638Z,68.00
2023-04-24T17:25:14.461Z,68.42
2023-04-24T17:28:41.347Z,68.52
2023-04-24T17:32:08.590Z,68.74
2023-04-24T17:35:35.725Z,68.95
2023-04-24T17:39:04.101Z,69.36
2023-04-24T17:42:33.037Z,69.64
2023-04-24T17:46:07.564Z,69.77
2023-04-24T17:49:42.298Z,70.16
2023-04-24T17:53:10.868Z,70.57
2023-04-24T17:56:41.379Z,70.78
2023-04-24T18:00:17.483Z,71.28
2023-04-24T18:03:47.390Z,72.20
2023-04-24T18:07:19.927Z,72.05
2023-04-24T18:10:50.429Z,72.29
2023-04-24T18:14:21.437Z,72.84
2023-04-24T18:17:51.809Z,73.03
2023-04-24T18:21:20.784Z,73.48
2023-04-24T18:24:50.480Z,73.86
2023-04-24T18:28:19.213Z,74.23
2023-04-24T18:31:46.786Z,74.38
2023-04-24T18:35:17.897Z,74.99
2023-04-24T18:38:48.898Z,74.85
2023-04-24T18:42:17.477Z,75.19
2023-04-24T18:45:44.979Z,75.57
2023-04-24T18:49:13.999Z,75.88
2023-04-24T18:52:52.218Z,76.43
2023-04-24T18:56:22.673Z,76.46
2023-04-24T18:59:52.123Z,76.55
2023-04-24T19:03:21.773Z,76.93
2023-04-24T19:06:52.561Z,77.24
2023-04-24T19:10:20.125Z,77.40
2023-04-24T19:13:49.359Z,77.87
2023-04-24T19:17:23.895Z,77.75
2023-04-24T19:20:54.020Z,78.05
2023-04-24T19:24:22.754Z,78.04
2023-04-24T19:27:53.100Z,78.44
2023-04-24T19:31:21.640Z,78.82
2023-04-24T19:34:48.510Z,78.97
2023-04-24T19:38:16.545Z,79.12
2023-04-24T19:41:43.683Z,79.37
2023-04-24T19:45:12.584Z,79.69
2023-04-24T19:48:39.528Z,80.08
2023-04-24T19:52:06.772Z,80.13
2023-04-24T19:55:34.073Z,80.28
2023-04-24T19:59:01.189Z,80.53
2023-04-24T20:02:28.471Z,80.50
2023-04-24T20:05:55.807Z,80.70
2023-04-24T20:09:22.941Z,81.17
2023-04-24T20:12:50.056Z,80.98
2023-04-24T20:16:17.030Z,81.08
2023-04-24T20:19:44.186Z,81.26
2023-04-24T20:23:11.561Z,81.40
2023-04-24T20:26:38.479Z,81.55
2023-04-24T20:30:10.552Z,81.25
2023-04-24T20:33:41.429Z,81.38
2023-04-24T20:37:08.321Z,81.20
2023-04-24T20:40:37.640Z,81.43
2023-04-24T20:44:05.361Z,81.33
2023-04-24T20:47:32.595Z,81.56
2023-04-24T20:50:59.678Z,81.22
2023-04-24T20:54:26.658Z,81.04
2023-04-24T20:57:53.851Z,81.21
2023-04-24T21:01:20.862Z,81.51
2023-04-24T21:04:47.771Z,82.01
2023-04-24T21:08:14.915Z,82.29
2023-04-24T21:11:42.808Z,82.66
2023-04-24T21:15:11.891Z,83.71
2023-04-24T21:18:41.338Z,83.70
2023-04-24T21:22:08.467Z,83.86
2023-04-24T21:25:35.683Z,83.84
2023-04-24T21:29:02.822Z,84.42
2023-04-24T21:32:29.676Z,84.68
2023-04-24T21:35:56.847Z,85.09
2023-04-24T21:39:23.753Z,85.35
2023-04-24T21:42:51.917Z,85.31
2023-04-24T21:46:19.010Z,85.45
2023-04-24T21:49:45.986Z,85.67
2023-04-24T21:53:13.074Z,85.69
2023-04-24T21:56:41.470Z,85.95
2023-04-24T22:00:11.484Z,85.56
2023-04-24T22:03:39.163Z,85.06
2023-04-24T22:07:06.525Z,84.91
2023-04-24T22:10:33.658Z,84.34
2023-04-24T22:14:00.638Z,84.20
2023-04-24T22:17:27.775Z,84.13
2023-04-24T22:20:54.819Z,83.88
2023-04-24T22:24:21.803Z,83.73
2023-04-24T22:27:48.568Z,83.71
2023-04-24T22:31:15.455Z,83.32
2023-04-24T22:34:42.272Z,83.39
2023-04-24T22:38:09.474Z,83.02
2023-04-24T22:41:36.926Z,82.84
2023-04-24T22:45:04.593Z,82.84
2023-04-24T22:48:32.805Z,82.77
2023-04-24T22:51:59.757Z,82.57
2023-04-24T22:55:26.966Z,82.48
2023-04-24T22:58:53.710Z,82.18
2023-04-24T23:02:20.692Z,81.84
2023-04-24T23:05:47.826Z,81.76
2023-04-24T23:09:14.668Z,81.64
2023-04-24T23:12:42.036Z,81.62
2023-04-24T23:16:09.670Z,81.78
2023-04-24T23:19:36.521Z,81.75
2023-04-24T23:23:03.444Z,81.61
2023-04-24T23:26:30.634Z,81.74
2023-04-24T23:29:57.590Z,81.81
2023-04-24T23:33:24.367Z,81.77
2023-04-24T23:36:52.438Z,81.78
2023-04-24T23:40:19.403Z,81.68
2023-04-24T23:43:46.529Z,81.65
2023-04-24T23:47:13.341Z,81.77
2023-04-24T23:50:40.572Z,81.40
2023-04-24T23:54:07.654Z,81.44
2023-04-24T23:57:34.623Z,81.48
